createdAt,value
2022-12-20T00:00:59.188Z,-0.43
2022-12-20T00:02:01.074Z,-0.12
2022-12-20T00:03:03.146Z,-0.10
2022-12-20T00:04:06.014Z,-0.15
2022-12-20T00:05:08.340Z,-0.14
2022-12-20T00:06:11.452Z,-0.14
2022-12-20T00:07:13.569Z,-0.33
2022-12-20T00:08:15.940Z,-0.14
2022-12-20T00:09:18.262Z,-0.20
2022-12-20T00:10:19.980Z,-0.51
2022-12-20T00:11:22.680Z,-0.06
2022-12-20T00:12:24.676Z,-0.06
2022-12-20T00:13:26.422Z,-0.45
2022-12-20T00:14:28.520Z,-0.30
2022-12-20T00:15:30.328Z,-0.22
2022-12-20T00:16:32.233Z,0.00
2022-12-20T00:17:34.331Z,-0.22
2022-12-20T00:18:37.388Z,0.06
2022-12-20T00:19:39.205Z,-0.29
2022-12-20T00:20:41.119Z,-0.01
2022-12-20T00:21:43.000Z,0.07
2022-12-20T00:22:44.808Z,-0.07
2022-12-20T00:23:46.727Z,-0.09
2022-12-20T00:24:48.635Z,0.10
2022-12-20T00:25:50.429Z,0.10
2022-12-20T00:26:52.525Z,0.11
2022-12-20T00:27:54.575Z,-0.03
2022-12-20T00:28:57.299Z,0.11
2022-12-20T00:29:59.566Z,0.01
2022-12-20T00:31:02.055Z,-0.37
2022-12-20T00:32:04.019Z,0.09
2022-12-20T00:33:05.938Z,0.12
2022-12-20T00:34:09.131Z,0.16
2022-12-20T00:35:11.693Z,0.15
2022-12-20T00:36:14.215Z,0.08
2022-12-20T00:37:16.089Z,0.02
2022-12-20T00:38:18.126Z,0.07
2022-12-20T00:39:19.955Z,-0.05
2022-12-20T00:40:21.857Z,-0.01
2022-12-20T00:41:26.834Z,0.10
2022-12-20T00:42:28.587Z,0.07
2022-12-20T00:43:31.499Z,-2.24
2022-12-20T00:44:33.627Z,-0.09
2022-12-20T00:45:35.375Z,-0.38
2022-12-20T00:46:37.235Z,-0.10
2022-12-20T00:47:39.123Z,-0.33
2022-12-20T00:48:41.280Z,-0.13
2022-12-20T00:49:43.115Z,-0.05
2022-12-20T00:50:44.891Z,-0.39
2022-12-20T00:51:46.914Z,-0.30
2022-12-20T00:52:48.720Z,-0.13
2022-12-20T00:53:50.620Z,-0.06
2022-12-20T00:54:52.526Z,-0.21
2022-12-20T00:55:54.335Z,-0.27
2022-12-20T00:56:56.286Z,-0.07
2022-12-20T00:57:58.313Z,-0.10
2022-12-20T00:59:00.184Z,-0.09
2022-12-20T01:00:02.447Z,-0.28
2022-12-20T01:01:06.293Z,-1.41
2022-12-20T01:02:08.345Z,-0.19
2022-12-20T01:03:10.678Z,-0.11
2022-12-20T01:04:12.605Z,-0.26
2022-12-20T01:05:14.455Z,-0.23
2022-12-20T01:06:16.684Z,-0.13
2022-12-20T01:07:18.685Z,-0.16
2022-12-20T01:08:21.658Z,-0.19
2022-12-20T01:09:23.771Z,-0.24
2022-12-20T01:10:25.599Z,-0.44
2022-12-20T01:11:30.687Z,-0.31
2022-12-20T01:12:32.456Z,-0.32
2022-12-20T01:13:36.814Z,-0.33
2022-12-20T01:14:38.599Z,-1.30
2022-12-20T01:15:40.698Z,-0.37
2022-12-20T01:16:45.704Z,-0.27
2022-12-20T01:17:47.989Z,-0.33
2022-12-20T01:18:50.937Z,-0.24
2022-12-20T01:19:52.809Z,-0.24
2022-12-20T01:21:05.628Z,-0.40
2022-12-20T01:22:07.645Z,-0.49
2022-12-20T01:23:09.453Z,-0.36
2022-12-20T01:24:16.001Z,-0.31
2022-12-20T01:25:17.979Z,-0.40
2022-12-20T01:26:22.477Z,-0.55
2022-12-20T01:27:24.758Z,-0.93
2022-12-20T01:28:27.524Z,-0.58
2022-12-20T01:29:29.412Z,-0.35
2022-12-20T01:30:31.359Z,-0.43
2022-12-20T01:31:34.059Z,-0.31
2022-12-20T01:32:35.803Z,-0.45
2022-12-20T01:33:38.061Z,-0.54
2022-12-20T01:34:40.107Z,-0.64
2022-12-20T01:35:41.817Z,-0.58
2022-12-20T01:36:43.705Z,-0.51
2022-12-20T01:37:45.504Z,-0.66
2022-12-20T01:38:47.570Z,-0.59
2022-12-20T01:39:49.557Z,-0.59
2022-12-20T01:40:51.838Z,-0.56
2022-12-20T01:41:53.810Z,-0.49
2022-12-20T01:42:55.565Z,-0.74
2022-12-20T01:44:06.380Z,-0.48
2022-12-20T01:45:13.326Z,-0.67
2022-12-20T01:46:15.935Z,-0.56
2022-12-20T01:47:17.769Z,-0.57
2022-12-20T01:48:25.751Z,-0.42
2022-12-20T01:49:34.743Z,-0.45
2022-12-20T01:50:37.465Z,-0.45
2022-12-20T01:51:50.107Z,-0.50
2022-12-20T01:52:52.910Z,-0.63
2022-12-20T01:54:04.282Z,-0.55
2022-12-20T01:55:06.064Z,-0.42
2022-12-20T01:56:10.372Z,-0.57
2022-12-20T01:57:25.794Z,-0.97
2022-12-20T01:58:27.783Z,-0.76
2022-12-20T01:59:30.914Z,-0.43
2022-12-20T02:01:30.303Z,-0.41
2022-12-20T02:02:33.302Z,-0.42
2022-12-20T02:03:35.938Z,-0.43
2022-12-20T02:04:38.100Z,-0.83
2022-12-20T02:05:43.668Z,-0.51
2022-12-20T02:06:45.466Z,-1.05
2022-12-20T02:07:50.395Z,-0.70
2022-12-20T02:08:55.287Z,-0.45
2022-12-20T02:09:59.253Z,-0.55
2022-12-20T02:11:07.856Z,-0.46
2022-12-20T02:12:15.184Z,-0.51
2022-12-20T02:13:45.709Z,-0.50
2022-12-20T02:15:39.042Z,-1.30
2022-12-20T02:17:22.649Z,-0.55
2022-12-20T02:18:31.956Z,-0.58
2022-12-20T02:20:07.753Z,-0.64
2022-12-20T02:22:00.037Z,-0.64
2022-12-20T02:23:27.233Z,-0.64
2022-12-20T02:24:54.563Z,-0.61
2022-12-20T02:26:14.828Z,-0.66
2022-12-20T02:27:35.299Z,-0.79
2022-12-20T02:29:07.649Z,-0.61
2022-12-20T02:30:16.352Z,-0.56
2022-12-20T02:31:25.547Z,-0.66
2022-12-20T02:32:36.285Z,-0.58
2022-12-20T02:33:42.325Z,-1.64
2022-12-20T02:34:44.190Z,-0.57
2022-12-20T02:35:46.055Z,-0.80
2022-12-20T02:36:47.894Z,-0.94
2022-12-20T02:37:59.915Z,-1.50
2022-12-20T02:39:01.912Z,-0.62
2022-12-20T02:40:05.482Z,-0.61
2022-12-20T02:41:17.262Z,-0.83
2022-12-20T02:42:24.086Z,-0.67
2022-12-20T02:43:29.116Z,-0.74
2022-12-20T02:44:33.560Z,-0.64
2022-12-20T02:45:37.687Z,-0.69
2022-12-20T02:46:40.493Z,-0.75
2022-12-20T02:47:54.767Z,-0.84
2022-12-20T02:49:03.182Z,-0.61
2022-12-20T02:50:07.554Z,-0.60
2022-12-20T02:51:11.307Z,-0.72
2022-12-20T02:52:15.203Z,-0.66
2022-12-20T02:53:17.612Z,-0.55
2022-12-20T02:54:19.856Z,-0.73
2022-12-20T02:55:27.745Z,-0.67
2022-12-20T02:56:35.243Z,-0.65
2022-12-20T02:58:00.088Z,-0.59
2022-12-20T02:59:23.610Z,-0.59
2022-12-20T03:00:25.740Z,-0.59
2022-12-20T03:01:32.265Z,-0.63
2022-12-20T03:02:35.182Z,-0.75
2022-12-20T03:03:38.051Z,-0.66
2022-12-20T03:04:41.204Z,-0.83
2022-12-20T03:05:47.707Z,-0.68
2022-12-20T03:07:08.870Z,-0.74
2022-12-20T03:08:10.861Z,-0.92
2022-12-20T03:09:12.775Z,-1.11
2022-12-20T03:10:14.734Z,-0.75
2022-12-20T03:11:17.074Z,-0.87
2022-12-20T03:12:18.999Z,-0.84
2022-12-20T03:13:22.645Z,-0.85
2022-12-20T03:14:24.591Z,-0.83
2022-12-20T03:15:26.312Z,-1.06
2022-12-20T03:16:28.128Z,-0.89
2022-12-20T03:17:30.030Z,-0.89
2022-12-20T03:18:32.078Z,-0.79
2022-12-20T03:19:34.012Z,-0.97
2022-12-20T03:20:36.172Z,-0.94
2022-12-20T03:21:38.196Z,-0.87
2022-12-20T03:22:40.086Z,-0.93
2022-12-20T03:23:41.923Z,-0.99
2022-12-20T03:24:43.654Z,-1.10
2022-12-20T03:25:45.708Z,-1.02
2022-12-20T03:26:47.725Z,-1.04
2022-12-20T03:27:49.644Z,-1.28
2022-12-20T03:28:52.196Z,-1.22
2022-12-20T03:29:54.939Z,-1.11
2022-12-20T03:30:56.850Z,-1.19
2022-12-20T03:31:58.939Z,-1.24
2022-12-20T03:33:00.979Z,-1.30
2022-12-20T03:34:03.908Z,-1.33
2022-12-20T03:35:06.349Z,-1.27
2022-12-20T03:36:08.303Z,-1.25
2022-12-20T03:37:10.179Z,-1.45
2022-12-20T03:38:12.149Z,-1.43
2022-12-20T03:39:14.027Z,-1.40
2022-12-20T03:40:16.378Z,-1.27
2022-12-20T03:41:19.010Z,-1.26
2022-12-20T03:42:20.993Z,-1.22
2022-12-20T03:43:22.917Z,-1.55
2022-12-20T03:44:24.723Z,-1.24
2022-12-20T03:45:26.640Z,-3.92
2022-12-20T03:46:28.531Z,-1.54
2022-12-20T03:47:30.419Z,-1.73
2022-12-20T03:48:32.375Z,-1.39
2022-12-20T03:49:34.259Z,-1.39
2022-12-20T03:50:36.214Z,-1.70
2022-12-20T03:51:38.183Z,-1.47
2022-12-20T03:52:40.384Z,-1.48
2022-12-20T03:53:42.307Z,-1.37
2022-12-20T03:54:45.428Z,-1.36
2022-12-20T03:55:47.601Z,-1.42
2022-12-20T03:56:49.435Z,-1.81
2022-12-20T03:57:51.598Z,-1.70
2022-12-20T03:58:53.933Z,-1.49
2022-12-20T03:59:56.165Z,-1.67
2022-12-20T04:00:58.158Z,-1.65
2022-12-20T04:02:00.065Z,-1.55
2022-12-20T04:03:02.225Z,-1.50
2022-12-20T04:04:05.710Z,-1.87
2022-12-20T04:05:08.407Z,-1.60
2022-12-20T04:06:10.667Z,-1.55
2022-12-20T04:07:12.353Z,-1.60
2022-12-20T04:08:14.159Z,-1.66
2022-12-20T04:09:16.373Z,-1.56
2022-12-20T04:10:18.476Z,-1.72
2022-12-20T04:11:20.289Z,-1.64
2022-12-20T04:12:22.043Z,-1.72
2022-12-20T04:13:23.995Z,-1.84
2022-12-20T04:14:25.859Z,-1.79
2022-12-20T04:15:27.644Z,-1.87
2022-12-20T04:16:31.050Z,-2.42
2022-12-20T04:17:33.149Z,-2.25
2022-12-20T04:18:34.925Z,-2.02
2022-12-20T04:19:36.813Z,-2.13
2022-12-20T04:20:38.612Z,-2.25
2022-12-20T04:21:40.592Z,-2.34
2022-12-20T04:22:42.466Z,-2.32
2022-12-20T04:23:44.370Z,-2.39
2022-12-20T04:24:46.307Z,-2.43
2022-12-20T04:25:48.305Z,-2.48
2022-12-20T04:26:50.230Z,-2.81
2022-12-20T04:27:52.044Z,-2.49
2022-12-20T04:28:53.974Z,-2.37
2022-12-20T04:29:55.899Z,-2.39
2022-12-20T04:30:58.435Z,-3.08
2022-12-20T04:32:00.545Z,-2.47
2022-12-20T04:33:02.362Z,-2.28
2022-12-20T04:34:04.148Z,-2.52
2022-12-20T04:35:06.518Z,-2.23
2022-12-20T04:36:09.192Z,-2.17
2022-12-20T04:37:11.085Z,-2.28
2022-12-20T04:38:13.072Z,-2.23
2022-12-20T04:39:14.805Z,-2.33
2022-12-20T04:40:16.962Z,-2.25
2022-12-20T04:41:19.035Z,-2.02
2022-12-20T04:42:20.953Z,-2.17
2022-12-20T04:43:24.278Z,-2.05
2022-12-20T04:44:26.235Z,-2.04
2022-12-20T04:45:28.240Z,-2.21
2022-12-20T04:46:30.243Z,-2.30
2022-12-20T04:47:32.362Z,-2.05
2022-12-20T04:48:55.653Z,-2.49
2022-12-20T04:49:56.021Z,-2.12
2022-12-20T04:50:57.820Z,-2.07
2022-12-20T04:51:59.719Z,-2.23
2022-12-20T04:53:01.934Z,-2.71
2022-12-20T04:54:03.930Z,-2.18
2022-12-20T04:55:06.364Z,-2.29
2022-12-20T04:56:08.801Z,-2.25
2022-12-20T04:57:10.899Z,-2.18
2022-12-20T04:58:12.713Z,-2.30
2022-12-20T04:59:14.565Z,-2.27
2022-12-20T05:00:16.757Z,-2.29
2022-12-20T05:01:20.120Z,-2.81
2022-12-20T05:02:22.355Z,-2.16
2022-12-20T05:03:26.303Z,-2.50
2022-12-20T05:04:35.077Z,-2.17
2022-12-20T05:05:38.955Z,-2.13
2022-12-20T05:06:40.728Z,-2.34
2022-12-20T05:07:42.762Z,-2.24
2022-12-20T05:08:44.719Z,-2.24
2022-12-20T05:09:46.781Z,-2.37
2022-12-20T05:10:48.603Z,-2.97
2022-12-20T05:11:50.448Z,-3.01
2022-12-20T05:12:52.357Z,-2.54
2022-12-20T05:13:54.283Z,-2.47
2022-12-20T05:14:56.525Z,-2.47
2022-12-20T05:15:58.573Z,-2.78
2022-12-20T05:17:00.559Z,-2.51
2022-12-20T05:18:02.765Z,-2.58
2022-12-20T05:19:04.858Z,-2.50
2022-12-20T05:20:07.880Z,-2.50
2022-12-20T05:21:09.720Z,-2.41
2022-12-20T05:22:11.683Z,-2.43
2022-12-20T05:23:14.060Z,-2.39
2022-12-20T05:24:16.008Z,-2.34
2022-12-20T05:25:17.923Z,-2.42
2022-12-20T05:26:20.079Z,-2.37
2022-12-20T05:27:21.829Z,-2.55
2022-12-20T05:28:23.740Z,-2.53
2022-12-20T05:29:25.636Z,-2.32
2022-12-20T05:30:27.808Z,-2.42
2022-12-20T05:31:29.698Z,-2.62
2022-12-20T05:32:31.964Z,-2.75
2022-12-20T05:33:34.375Z,-2.59
2022-12-20T05:34:36.341Z,-2.81
2022-12-20T05:35:38.033Z,-2.64
2022-12-20T05:36:39.959Z,-2.78
2022-12-20T05:37:42.216Z,-2.61
2022-12-20T05:38:44.135Z,-2.77
2022-12-20T05:39:46.385Z,-2.84
2022-12-20T05:40:49.542Z,-2.98
2022-12-20T05:41:51.399Z,-2.94
2022-12-20T05:42:53.418Z,-3.04
2022-12-20T05:43:55.444Z,-3.08
2022-12-20T05:44:57.187Z,-3.11
2022-12-20T05:45:58.853Z,-2.99
2022-12-20T05:47:00.825Z,-3.40
2022-12-20T05:48:02.888Z,-3.15
2022-12-20T05:49:04.643Z,-3.11
2022-12-20T05:50:07.159Z,-3.30
2022-12-20T05:51:09.149Z,-3.12
2022-12-20T05:52:10.919Z,-4.33
2022-12-20T05:53:14.622Z,-3.24
2022-12-20T05:54:16.526Z,-3.11
2022-12-20T05:55:18.322Z,-3.23
2022-12-20T05:56:20.257Z,-3.21
2022-12-20T05:57:22.606Z,-3.45
2022-12-20T05:58:24.744Z,-3.19
2022-12-20T05:59:26.621Z,-3.22
2022-12-20T06:00:28.411Z,-3.32
2022-12-20T06:01:30.192Z,-3.29
2022-12-20T06:02:32.324Z,-4.17
2022-12-20T06:03:34.494Z,-3.09
2022-12-20T06:04:37.684Z,-3.13
2022-12-20T06:05:39.599Z,-3.15
2022-12-20T06:06:41.396Z,-3.15
2022-12-20T06:07:43.121Z,-3.25
2022-12-20T06:08:44.906Z,-3.33
2022-12-20T06:09:46.987Z,-3.15
2022-12-20T06:10:49.468Z,-2.96
2022-12-20T06:11:51.459Z,-2.94
2022-12-20T06:12:53.361Z,-2.89
2022-12-20T06:13:55.328Z,-3.04
2022-12-20T06:14:57.114Z,-2.99
2022-12-20T06:15:58.974Z,-2.98
2022-12-20T06:17:00.708Z,-3.23
2022-12-20T06:18:02.640Z,-3.19
2022-12-20T06:19:04.427Z,-3.01
2022-12-20T06:20:06.890Z,-3.94
2022-12-20T06:21:08.630Z,-3.18
2022-12-20T06:22:10.455Z,-3.00
2022-12-20T06:23:12.221Z,-2.96
2022-12-20T06:24:14.163Z,-3.00
2022-12-20T06:25:16.110Z,-3.02
2022-12-20T06:26:17.943Z,-3.17
2022-12-20T06:27:19.904Z,-3.05
2022-12-20T06:28:22.063Z,-3.12
2022-12-20T06:29:24.074Z,-2.86
2022-12-20T06:30:31.852Z,-2.81
2022-12-20T06:31:35.918Z,-2.94
2022-12-20T06:32:37.951Z,-2.89
2022-12-20T06:33:39.705Z,-2.70
2022-12-20T06:34:41.464Z,-3.00
2022-12-20T06:35:43.162Z,-3.72
2022-12-20T06:36:45.102Z,-2.75
2022-12-20T06:37:46.879Z,-2.59
2022-12-20T06:38:48.759Z,-2.51
2022-12-20T06:39:50.591Z,-2.45
2022-12-20T06:40:52.322Z,-2.51
2022-12-20T06:41:54.068Z,-2.35
2022-12-20T06:42:57.948Z,-2.33
2022-12-20T06:44:00.408Z,-2.30
2022-12-20T06:45:02.500Z,-2.24
2022-12-20T06:46:06.219Z,-2.17
2022-12-20T06:47:09.875Z,-2.00
2022-12-20T06:48:12.384Z,-1.84
2022-12-20T06:49:17.262Z,-1.85
2022-12-20T06:50:19.058Z,-1.81
2022-12-20T06:51:20.738Z,-1.92
2022-12-20T06:52:22.939Z,-1.73
2022-12-20T06:53:25.106Z,-1.87
2022-12-20T06:54:26.921Z,-2.03
2022-12-20T06:55:28.713Z,-1.86
2022-12-20T06:56:32.554Z,-1.99
2022-12-20T06:57:36.639Z,-1.87
2022-12-20T06:58:38.327Z,-1.92
2022-12-20T06:59:40.026Z,-1.73
2022-12-20T07:00:41.964Z,-2.05
2022-12-20T07:01:43.916Z,-1.96
2022-12-20T07:02:45.984Z,-2.03
2022-12-20T07:03:47.732Z,-3.72
2022-12-20T07:04:49.659Z,-1.87
2022-12-20T07:05:52.791Z,-1.49
2022-12-20T07:06:54.479Z,-1.41
2022-12-20T07:07:56.238Z,-1.17
2022-12-20T07:08:58.189Z,-1.33
2022-12-20T07:10:00.006Z,-1.33
2022-12-20T07:11:06.806Z,-1.07
2022-12-20T07:12:10.273Z,-1.13
2022-12-20T07:13:12.289Z,-1.05
2022-12-20T07:14:14.201Z,-1.02
2022-12-20T07:15:17.016Z,-1.21
2022-12-20T07:17:29.518Z,-3.32
2022-12-20T07:18:32.319Z,-3.14
2022-12-20T07:19:35.747Z,-0.89
2022-12-20T07:20:40.200Z,-2.70
2022-12-20T07:21:42.870Z,-2.13
2022-12-20T07:22:48.406Z,-1.26
2022-12-20T07:23:50.407Z,-1.20
2022-12-20T07:24:53.056Z,-1.10
2022-12-20T07:25:59.668Z,-0.56
2022-12-20T07:27:02.237Z,-0.48
2022-12-20T07:28:04.057Z,-0.38
2022-12-20T07:29:10.452Z,-0.64
2022-12-20T07:30:16.352Z,-0.51
2022-12-20T07:31:18.240Z,-0.54
2022-12-20T07:32:20.244Z,-0.34
2022-12-20T07:33:22.259Z,-0.46
2022-12-20T07:34:24.290Z,-0.25
2022-12-20T07:35:28.230Z,-0.15
2022-12-20T07:36:30.058Z,-0.03
2022-12-20T07:37:31.841Z,0.09
2022-12-20T07:38:34.834Z,-0.56
2022-12-20T07:39:36.852Z,-0.09
2022-12-20T07:40:43.065Z,-0.04
2022-12-20T07:41:45.691Z,-0.14
2022-12-20T07:42:49.000Z,-0.13
2022-12-20T07:43:51.494Z,0.08
2022-12-20T07:44:53.468Z,0.22
2022-12-20T07:45:57.219Z,0.40
2022-12-20T07:46:59.033Z,0.18
2022-12-20T07:48:09.288Z,-0.00
2022-12-20T07:49:14.534Z,0.15
2022-12-20T07:50:16.626Z,0.09
2022-12-20T07:51:32.326Z,-0.12
2022-12-20T07:52:35.160Z,-0.22
2022-12-20T07:53:42.033Z,-0.14
2022-12-20T07:54:54.943Z,-0.12
2022-12-20T07:55:58.371Z,-0.42
2022-12-20T07:57:04.730Z,-0.25
2022-12-20T07:58:11.028Z,-0.21
2022-12-20T07:59:16.613Z,-0.22
2022-12-20T08:00:19.041Z,-0.19
2022-12-20T08:01:21.652Z,-0.33
2022-12-20T08:02:36.097Z,-0.27
2022-12-20T08:03:44.246Z,-0.28
2022-12-20T08:04:47.185Z,-0.08
2022-12-20T08:05:53.887Z,0.10
2022-12-20T08:06:57.130Z,0.12
2022-12-20T08:08:00.184Z,0.18
2022-12-20T08:09:05.279Z,0.13
2022-12-20T08:10:11.486Z,0.06
2022-12-20T08:11:14.123Z,0.12
2022-12-20T08:12:18.095Z,0.29
2022-12-20T08:13:20.039Z,0.12
2022-12-20T08:14:22.049Z,0.35
2022-12-20T08:15:24.317Z,-0.05
2022-12-20T08:16:26.623Z,0.44
2022-12-20T08:17:28.447Z,-0.05
2022-12-20T08:18:30.144Z,0.23
2022-12-20T08:19:32.712Z,0.43
2022-12-20T08:20:35.108Z,-0.07
2022-12-20T08:21:37.125Z,0.76
2022-12-20T08:22:38.922Z,0.67
2022-12-20T08:23:41.275Z,0.85
2022-12-20T08:24:42.962Z,0.49
2022-12-20T08:25:44.687Z,0.86
2022-12-20T08:26:46.454Z,0.96
2022-12-20T08:27:48.247Z,0.59
2022-12-20T08:28:49.972Z,0.74
2022-12-20T08:29:51.669Z,0.89
2022-12-20T08:30:53.463Z,0.58
2022-12-20T08:31:55.295Z,1.13
2022-12-20T08:32:57.111Z,1.17
2022-12-20T08:33:58.817Z,1.24
2022-12-20T08:35:01.060Z,1.45
2022-12-20T08:36:06.031Z,1.64
2022-12-20T08:37:14.351Z,1.54
2022-12-20T08:38:16.735Z,1.38
2022-12-20T08:39:18.685Z,2.10
2022-12-20T08:40:21.374Z,2.16
2022-12-20T08:41:23.391Z,2.03
2022-12-20T08:42:25.414Z,1.86
2022-12-20T08:43:27.505Z,2.03
2022-12-20T08:44:29.351Z,2.11
2022-12-20T08:45:31.226Z,2.26
2022-12-20T08:46:33.493Z,2.22
2022-12-20T08:47:35.517Z,2.26
2022-12-20T08:48:37.991Z,2.54
2022-12-20T08:49:45.648Z,2.35
2022-12-20T08:50:58.878Z,2.35
2022-12-20T08:52:00.624Z,1.62
2022-12-20T08:53:02.524Z,2.02
2022-12-20T08:54:04.399Z,2.21
2022-12-20T08:55:06.696Z,2.10
2022-12-20T08:56:14.712Z,2.09
2022-12-20T08:57:16.942Z,2.35
2022-12-20T08:58:19.386Z,2.37
2022-12-20T08:59:21.157Z,2.49
2022-12-20T09:00:23.111Z,2.43
2022-12-20T09:01:25.031Z,2.31
2022-12-20T09:02:27.268Z,2.35
2022-12-20T09:03:32.931Z,2.51
2022-12-20T09:04:35.587Z,2.70
2022-12-20T09:05:43.607Z,2.72
2022-12-20T09:06:45.797Z,3.10
2022-12-20T09:07:47.978Z,3.12
2022-12-20T09:08:50.213Z,2.95
2022-12-20T09:09:52.524Z,2.84
2022-12-20T09:10:54.630Z,1.61
2022-12-20T09:11:56.570Z,1.46
2022-12-20T09:12:58.538Z,1.50
2022-12-20T09:14:00.492Z,3.03
2022-12-20T09:15:02.520Z,2.88
2022-12-20T09:16:06.747Z,1.97
2022-12-20T09:17:08.610Z,3.11
2022-12-20T09:18:10.668Z,3.51
2022-12-20T09:19:14.266Z,3.12
2022-12-20T09:20:16.463Z,3.31
2022-12-20T09:21:19.139Z,3.15
2022-12-20T09:22:21.237Z,3.25
2022-12-20T09:23:22.942Z,3.17
2022-12-20T09:24:24.962Z,2.98
2022-12-20T09:25:28.335Z,3.02
2022-12-20T09:26:30.076Z,3.42
2022-12-20T09:27:32.378Z,2.48
2022-12-20T09:28:35.369Z,3.31
2022-12-20T09:29:37.388Z,3.29
2022-12-20T09:30:39.194Z,3.07
2022-12-20T09:31:41.032Z,3.16
2022-12-20T09:32:42.818Z,3.39
2022-12-20T09:33:45.380Z,2.96
2022-12-20T09:34:47.072Z,3.10
2022-12-20T09:35:48.775Z,3.17
2022-12-20T09:36:50.473Z,3.31
2022-12-20T09:37:52.452Z,3.41
2022-12-20T09:38:55.573Z,2.64
2022-12-20T09:39:57.324Z,3.80
2022-12-20T09:41:05.219Z,3.72
2022-12-20T09:42:08.659Z,3.51
2022-12-20T09:43:12.018Z,2.84
2022-12-20T09:44:29.376Z,3.06
2022-12-20T09:45:35.694Z,2.97
2022-12-20T09:46:39.460Z,2.53
2022-12-20T09:47:41.210Z,3.94
2022-12-20T09:48:43.885Z,4.06
2022-12-20T09:49:50.956Z,4.03
2022-12-20T09:51:10.272Z,4.04
2022-12-20T09:52:20.873Z,4.22
2022-12-20T09:53:34.707Z,4.20
2022-12-20T09:54:36.282Z,3.92
2022-12-20T09:55:50.700Z,3.22
2022-12-20T09:57:12.949Z,3.80
2022-12-20T09:58:38.877Z,3.84
2022-12-20T09:59:49.257Z,3.50
2022-12-20T10:00:54.523Z,3.16
2022-12-20T10:01:56.840Z,3.64
2022-12-20T10:03:09.913Z,3.94
2022-12-20T10:04:26.534Z,4.52
2022-12-20T10:05:41.838Z,4.74
2022-12-20T10:07:21.627Z,4.71
2022-12-20T10:08:42.076Z,3.90
2022-12-20T10:09:59.675Z,3.67
2022-12-20T10:11:49.905Z,3.25
2022-12-20T10:13:13.353Z,3.51
2022-12-20T10:14:28.936Z,4.12
2022-12-20T10:15:36.439Z,3.01
2022-12-20T10:16:55.913Z,4.47
2022-12-20T10:18:06.828Z,5.14
2022-12-20T10:19:45.475Z,5.56
2022-12-20T10:21:02.264Z,4.65
2022-12-20T10:22:14.527Z,4.73
2022-12-20T10:23:33.823Z,5.56
2022-12-20T10:24:37.033Z,5.38
2022-12-20T10:25:40.832Z,5.19
2022-12-20T10:26:42.982Z,5.09
2022-12-20T10:27:46.837Z,5.20
2022-12-20T10:28:53.849Z,4.78
2022-12-20T10:29:57.012Z,4.84
2022-12-20T10:31:17.662Z,4.90
2022-12-20T10:32:23.522Z,5.18
2022-12-20T10:33:27.961Z,4.90
2022-12-20T10:34:36.533Z,4.23
2022-12-20T10:35:41.744Z,2.90
2022-12-20T10:36:43.537Z,3.87
2022-12-20T10:38:09.219Z,4.35
2022-12-20T10:39:11.544Z,4.39
2022-12-20T10:40:53.395Z,4.27
2022-12-20T10:41:50.532Z,4.66
2022-12-20T10:42:52.500Z,4.73
2022-12-20T10:44:14.445Z,4.14
2022-12-20T10:45:16.140Z,5.07
2022-12-20T10:46:17.966Z,5.08
2022-12-20T10:47:37.833Z,4.51
2022-12-20T10:48:42.014Z,5.12
2022-12-20T10:49:43.756Z,4.86
2022-12-20T10:50:56.938Z,4.27
2022-12-20T10:52:07.410Z,4.09
2022-12-20T10:53:21.067Z,3.99
2022-12-20T10:54:40.243Z,4.31
2022-12-20T10:55:43.021Z,3.79
2022-12-20T10:56:58.888Z,4.14
2022-12-20T10:58:18.472Z,4.78
2022-12-20T10:59:28.794Z,4.62
2022-12-20T11:00:32.636Z,4.34
2022-12-20T11:01:37.077Z,3.79
2022-12-20T11:02:42.959Z,4.37
2022-12-20T11:04:00.008Z,4.78
2022-12-20T11:05:10.998Z,5.06
2022-12-20T11:06:18.002Z,4.76
2022-12-20T11:07:31.581Z,4.23
2022-12-20T11:08:44.997Z,4.55
2022-12-20T11:09:56.597Z,4.75
2022-12-20T11:11:12.799Z,4.77
2022-12-20T11:12:16.820Z,4.85
2022-12-20T11:13:24.507Z,5.06
2022-12-20T11:14:28.487Z,4.88
2022-12-20T11:15:35.822Z,5.03
2022-12-20T11:16:40.304Z,4.81
2022-12-20T11:17:47.127Z,5.08
2022-12-20T11:19:27.520Z,5.07
2022-12-20T11:20:44.330Z,5.23
2022-12-20T11:22:05.541Z,4.31
2022-12-20T11:23:42.313Z,4.96
2022-12-20T11:25:18.890Z,5.15
2022-12-20T11:26:36.483Z,5.59
2022-12-20T11:27:44.480Z,5.71
2022-12-20T11:29:07.674Z,5.83
2022-12-20T11:30:25.955Z,5.89
2022-12-20T11:31:57.264Z,5.97
2022-12-20T11:33:32.922Z,6.09
2022-12-20T11:34:56.457Z,5.73
2022-12-20T11:36:49.232Z,6.10
2022-12-20T11:38:18.649Z,6.23
2022-12-20T11:39:33.092Z,6.49
2022-12-20T11:40:43.692Z,6.52
2022-12-20T11:42:02.053Z,6.55
2022-12-20T11:43:48.156Z,6.39
2022-12-20T11:45:15.779Z,6.12
2022-12-20T11:46:24.859Z,6.25
2022-12-20T11:47:27.645Z,6.12
2022-12-20T11:48:55.053Z,5.64
2022-12-20T11:50:40.006Z,5.90
2022-12-20T11:51:54.148Z,5.96
2022-12-20T11:53:08.020Z,5.72
2022-12-20T11:54:24.055Z,5.78
2022-12-20T11:55:27.931Z,5.34
2022-12-20T11:56:43.762Z,5.27
2022-12-20T11:58:21.205Z,5.45
2022-12-20T11:59:45.432Z,5.67
2022-12-20T12:00:53.124Z,5.56
2022-12-20T12:02:10.336Z,5.84
2022-12-20T12:03:22.038Z,6.13
2022-12-20T12:04:30.404Z,6.47
2022-12-20T12:05:45.559Z,4.34
2022-12-20T12:06:58.567Z,6.92
2022-12-20T12:08:06.009Z,4.88
2022-12-20T12:09:36.135Z,5.05
2022-12-20T12:10:44.192Z,7.10
2022-12-20T12:12:09.624Z,5.18
2022-12-20T12:13:17.626Z,3.58
2022-12-20T12:14:53.159Z,3.64
2022-12-20T12:16:17.082Z,6.14
2022-12-20T12:17:32.619Z,3.37
2022-12-20T12:18:36.957Z,3.86
2022-12-20T12:19:43.537Z,4.67
2022-12-20T12:20:48.707Z,4.54
2022-12-20T12:21:58.245Z,5.72
2022-12-20T12:23:17.137Z,3.29
2022-12-20T12:24:42.893Z,6.80
2022-12-20T12:25:44.921Z,4.30
2022-12-20T12:26:47.648Z,5.00
2022-12-20T12:27:49.764Z,7.12
2022-12-20T12:28:58.747Z,7.07
2022-12-20T12:30:00.784Z,6.87
2022-12-20T12:31:15.443Z,7.03
2022-12-20T12:32:25.825Z,6.13
2022-12-20T12:33:38.879Z,7.17
2022-12-20T12:35:05.454Z,6.37
2022-12-20T12:36:34.408Z,5.60
2022-12-20T12:38:03.310Z,6.16
2022-12-20T12:39:27.230Z,6.10
2022-12-20T12:40:58.461Z,6.31
2022-12-20T12:42:35.590Z,5.48
2022-12-20T12:44:11.517Z,6.02
2022-12-20T12:45:29.084Z,5.81
2022-12-20T12:46:35.765Z,5.90
2022-12-20T12:47:55.509Z,5.84
2022-12-20T12:49:17.025Z,5.56
2022-12-20T12:50:27.820Z,5.66
2022-12-20T12:51:36.617Z,5.42
2022-12-20T12:52:49.239Z,5.53
2022-12-20T12:54:03.137Z,5.37
2022-12-20T12:55:38.206Z,5.00
2022-12-20T12:56:46.286Z,4.46
2022-12-20T12:57:58.455Z,4.40
2022-12-20T12:59:06.146Z,4.28
2022-12-20T13:01:03.088Z,4.49
2022-12-20T13:02:14.219Z,4.06
2022-12-20T13:03:34.793Z,4.42
2022-12-20T13:05:01.586Z,4.65
2022-12-20T13:06:35.394Z,4.14
2022-12-20T13:07:37.042Z,4.67
2022-12-20T13:09:00.676Z,4.78
2022-12-20T13:10:08.434Z,4.61
2022-12-20T13:11:28.489Z,4.68
2022-12-20T13:12:38.924Z,4.65
2022-12-20T13:13:40.651Z,4.60
2022-12-20T13:14:48.719Z,3.76
2022-12-20T13:15:51.866Z,4.74
2022-12-20T13:17:24.086Z,4.74
2022-12-20T13:18:25.673Z,4.69
2022-12-20T13:19:27.295Z,4.54
2022-12-20T13:20:34.835Z,4.56
2022-12-20T13:21:38.043Z,4.53
2022-12-20T13:22:39.963Z,4.64
2022-12-20T13:23:41.802Z,4.43
2022-12-20T13:24:46.371Z,4.60
2022-12-20T13:25:50.373Z,4.52
2022-12-20T13:26:53.735Z,4.50
2022-12-20T13:28:24.360Z,4.34
2022-12-20T13:29:36.322Z,4.02
2022-12-20T13:30:38.028Z,4.35
2022-12-20T13:31:39.858Z,4.08
2022-12-20T13:32:47.405Z,4.16
2022-12-20T13:33:51.319Z,4.19
2022-12-20T13:34:57.189Z,4.18
2022-12-20T13:36:01.940Z,4.24
2022-12-20T13:37:03.729Z,4.06
2022-12-20T13:38:11.655Z,4.20
2022-12-20T13:39:32.517Z,4.00
2022-12-20T13:40:46.433Z,4.06
2022-12-20T13:41:52.622Z,4.01
2022-12-20T13:42:57.029Z,3.56
2022-12-20T13:44:08.447Z,3.92
2022-12-20T13:45:14.528Z,4.09
2022-12-20T13:46:38.291Z,4.12
2022-12-20T13:47:53.074Z,3.83
2022-12-20T13:49:03.555Z,4.16
2022-12-20T13:50:41.785Z,3.94
2022-12-20T13:51:43.658Z,3.82
2022-12-20T13:52:45.701Z,3.91
2022-12-20T13:53:54.829Z,2.54
2022-12-20T13:55:00.369Z,3.75
2022-12-20T13:56:26.505Z,3.62
2022-12-20T13:57:32.971Z,3.63
2022-12-20T13:58:34.869Z,3.56
2022-12-20T13:59:36.709Z,3.47
2022-12-20T14:00:38.976Z,3.55
2022-12-20T14:01:52.361Z,3.18
2022-12-20T14:02:54.798Z,3.50
2022-12-20T14:03:57.674Z,2.42
2022-12-20T14:05:13.713Z,3.45
2022-12-20T14:06:24.541Z,3.64
2022-12-20T14:07:32.325Z,2.30
2022-12-20T14:08:36.570Z,3.14
2022-12-20T14:09:38.997Z,2.92
2022-12-20T14:10:40.742Z,3.49
2022-12-20T14:11:51.460Z,3.36
2022-12-20T14:12:54.200Z,3.32
2022-12-20T14:14:04.676Z,3.34
2022-12-20T14:15:25.180Z,3.36
2022-12-20T14:16:29.217Z,3.36
2022-12-20T14:17:33.400Z,2.19
2022-12-20T14:18:35.226Z,3.25
2022-12-20T14:19:36.950Z,2.97
2022-12-20T14:20:38.844Z,3.16
2022-12-20T14:21:44.788Z,3.04
2022-12-20T14:23:10.024Z,2.88
2022-12-20T14:24:19.667Z,2.89
2022-12-20T14:25:43.287Z,2.95
2022-12-20T14:26:47.931Z,2.34
2022-12-20T14:27:49.903Z,2.67
2022-12-20T14:28:57.271Z,2.70
2022-12-20T14:29:59.286Z,2.31
2022-12-20T14:31:02.684Z,2.65
2022-12-20T14:32:04.665Z,2.76
2022-12-20T14:33:35.871Z,2.68